Time;durP1;ratioP1;P1;durP2;ratioP2;P2;SDS_P1;SDS_P2;PMS_P1;PMS_P2;Temp;Humidity;BMP_temperature;BMP_pressure;BME280_temperature;BME280_humidity;BME280_pressure;Samples;Min_cycle;Max_cycle;Signal;HPM_P1;HPM_P2
2022/01/16 00:09:45;;;;;;;88.53;80.27;;;;;;;5.54;100.00;102585.34;1842579;76;86247;-72
2022/01/16 00:15:32;;;;;;;88.97;81.03;;;;;;;5.34;100.00;102575.66;1837021;76;86499;-71
2022/01/16 00:21:19;;;;;;;89.93;81.70;;;;;;;5.13;100.00;102570.31;1897994;72;86557;-71
2022/01/16 00:27:08;;;;;;;87.93;79.50;;;;;;;5.34;100.00;102559.98;1937414;71;40305;-71
2022/01/16 00:33:00;;;;;;;89.03;80.97;;;;;;;5.41;100.00;102574.61;1981892;71;39470;-72
2022/01/16 00:38:45;;;;;;;87.50;79.80;;;;;;;5.41;100.00;102565.50;1848182;76;86406;-72
2022/01/16 00:44:32;;;;;;;88.37;80.47;;;;;;;5.64;100.00;102591.30;1889806;73;86690;-72
2022/01/16 00:50:17;;;;;;;85.70;78.07;;;;;;;5.65;100.00;102591.63;1920511;73;86499;-71
2022/01/16 00:56:01;;;;;;;83.60;76.07;;;;;;;5.31;100.00;102579.66;1985118;71;39750;-72
2022/01/16 01:01:45;;;;;;;83.93;76.43;;;;;;;5.21;100.00;102557.72;1832752;76;85447;-72
2022/01/16 01:07:28;;;;;;;84.73;77.13;;;;;;;5.17;100.00;102574.34;1872085;75;86703;-72
2022/01/16 01:13:21;;;;;;;81.37;73.67;;;;;;;5.25;100.00;102543.33;1907501;72;86656;-72
2022/01/16 01:18:58;;;;;;;81.13;73.63;;;;;;;5.15;100.00;102549.75;1949425;71;39704;-72
2022/01/16 01:24:43;;;;;;;82.33;74.90;;;;;;;5.23;100.00;102565.23;1831822;76;85511;-71
2022/01/16 01:30:27;;;;;;;84.33;76.97;;;;;;;4.91;100.00;102566.84;1873032;75;86400;-72
2022/01/16 01:36:12;;;;;;;84.23;76.13;;;;;;;5.20;100.00;102581.66;1914332;74;86558;-70
2022/01/16 01:42:05;;;;;;;86.17;78.83;;;;;;;5.42;100.00;102546.53;1986622;71;39542;-70
2022/01/16 01:53:44;;;;;;;84.87;77.33;;;;;;;5.19;100.00;102467.53;1927665;72;86616;-71
2022/01/16 01:59:30;;;;;;;87.13;78.87;;;;;;;5.21;100.00;102520.53;1883159;73;86900;-72
2022/01/16 02:05:14;;;;;;;82.57;74.87;;;;;;;5.31;100.00;102549.36;1890425;74;86216;-72
2022/01/16 02:10:59;;;;;;;84.77;77.00;;;;;;;5.31;100.00;102550.73;1976954;71;39544;-71
2022/01/16 02:29:03;;;;;;;84.40;76.37;;;;;;;5.51;100.00;102549.41;1825368;76;85671;-70
2022/01/16 02:34:34;;;;;;;87.43;79.07;;;;;;;5.90;100.00;102562.40;1828415;76;86561;-72
2022/01/16 02:40:24;;;;;;;85.37;77.57;;;;;;;5.88;100.00;102568.64;1902816;73;86409;-72
2022/01/16 02:52:11;;;;;;;85.03;77.10;;;;;;;6.00;100.00;102541.26;1913680;72;85291;-71
2022/01/16 02:57:57;;;;;;;85.93;78.10;;;;;;;5.84;100.00;102531.48;1934763;71;39453;-72
2022/01/16 03:03:43;;;;;;;85.93;78.37;;;;;;;5.81;100.00;102525.03;1855967;76;86611;-72
2022/01/16 03:09:30;;;;;;;84.07;75.87;;;;;;;5.88;100.00;102521.76;1874398;74;85529;-72
2022/01/16 03:15:12;;;;;;;84.43;76.63;;;;;;;5.88;100.00;102503.30;1916480;73;85685;-72
2022/01/16 03:27:00;;;;;;;82.90;75.27;;;;;;;6.06;100.00;102500.42;1976706;71;39570;-70
2022/01/16 03:32:45;;;;;;;90.43;82.07;;;;;;;6.08;100.00;102483.95;1892245;74;86678;-70
2022/01/16 03:38:30;;;;;;;82.27;74.53;;;;;;;5.98;100.00;102471.16;1871884;75;86836;-71
2022/01/16 03:44:15;;;;;;;87.00;78.63;;;;;;;6.27;100.00;102479.45;1916714;72;86261;-71
2022/01/16 03:50:00;;;;;;;86.20;78.17;;;;;;;5.94;100.00;102483.16;1958484;71;39738;-72
2022/01/16 03:55:45;;;;;;;81.80;74.37;;;;;;;5.79;100.00;102471.46;1886763;74;86120;-70
2022/01/16 04:01:29;;;;;;;82.23;74.67;;;;;;;5.45;100.00;102472.55;1870286;74;86436;-72
2022/01/16 04:07:18;;;;;;;81.57;74.00;;;;;;;5.16;100.00;102488.10;1904736;72;86713;-70
2022/01/16 04:12:58;;;;;;;81.67;73.90;;;;;;;5.13;100.00;102500.92;1955822;71;39685;-72
2022/01/16 04:18:43;;;;;;;76.63;69.43;;;;;;;4.96;100.00;102496.86;1974236;69;86077;-71
2022/01/16 04:24:27;;;;;;;76.20;69.33;;;;;;;4.86;100.00;102503.28;1880942;74;86529;-71
2022/01/16 04:30:13;;;;;;;80.10;73.13;;;;;;;4.97;100.00;102508.17;1924647;73;86746;-72
2022/01/16 04:35:57;;;;;;;80.83;73.10;;;;;;;4.73;100.00;102499.95;1979558;71;39570;-72
2022/01/16 04:47:46;;;;;;;77.90;70.73;;;;;;;4.92;100.00;102495.58;1957344;72;86296;-72
2022/01/16 04:53:34;;;;;;;78.53;71.03;;;;;;;5.00;100.00;102486.60;1887584;74;86585;-70
2022/01/16 04:59:20;;;;;;;81.63;73.80;;;;;;;5.13;100.00;102489.05;1920654;73;85599;-71
2022/01/16 05:05:05;;;;;;;78.47;71.10;;;;;;;5.22;100.00;102493.31;1899379;74;86319;-70
2022/01/16 05:10:48;;;;;;;80.13;72.40;;;;;;;5.09;100.00;102495.52;1845377;76;86682;-72
2022/01/16 05:16:35;;;;;;;82.20;74.53;;;;;;;5.25;100.00;102506.13;1812827;78;86297;-72
2022/01/16 05:22:23;;;;;;;82.03;74.27;;;;;;;5.37;100.00;102520.98;1883172;73;86894;-71
2022/01/16 05:28:07;;;;;;;85.13;76.60;;;;;;;5.45;100.00;102512.50;1918014;72;86746;-71
2022/01/16 05:33:51;;;;;;;89.80;80.70;;;;;;;5.36;100.00;102524.78;1944901;71;39644;-72
2022/01/16 05:39:37;;;;;;;88.50;79.77;;;;;;;5.53;100.00;102527.12;1875788;76;85508;-71
2022/01/16 05:45:26;;;;;;;89.80;80.83;;;;;;;5.48;100.00;102505.71;1874378;74;86372;-72
2022/01/16 05:51:10;;;;;;;85.47;76.87;;;;;;;5.40;100.00;102480.59;1925693;73;85439;-71
2022/01/16 05:56:55;;;;;;;86.90;78.23;;;;;;;5.45;100.00;102490.45;1981902;71;39606;-72
2022/01/16 06:02:39;;;;;;;89.27;80.03;;;;;;;5.52;100.00;102484.94;1850675;76;86375;-71
2022/01/16 06:08:22;;;;;;;91.67;82.47;;;;;;;5.70;100.00;102491.19;1878120;75;86736;-70
2022/01/16 06:14:07;;;;;;;89.47;81.07;;;;;;;5.67;100.00;102509.54;1912036;72;85376;-71
2022/01/16 06:19:51;;;;;;;90.73;81.47;;;;;;;5.48;100.00;102516.73;1892187;74;86705;-72
2022/01/16 06:25:35;;;;;;;91.23;81.90;;;;;;;5.45;100.00;102527.66;1795746;78;86312;-72
2022/01/16 06:31:19;;;;;;;86.70;78.10;;;;;;;5.57;100.00;102525.64;1908719;73;85924;-71
2022/01/16 06:37:04;;;;;;;90.20;80.77;;;;;;;5.68;100.00;102534.68;1977784;71;39529;-72
2022/01/16 06:42:48;;;;;;;88.47;79.73;;;;;;;5.53;100.00;102550.55;1841189;76;86882;-72
2022/01/16 06:48:32;;;;;;;88.57;79.93;;;;;;;5.57;100.00;102552.69;1839177;76;86582;-71
2022/01/16 06:54:18;;;;;;;89.10;80.87;;;;;;;5.43;100.00;102560.64;1904447;72;86543;-71
2022/01/16 07:00:02;;;;;;;85.53;77.57;;;;;;;5.56;100.00;102568.92;1955223;71;39569;-71
2022/01/16 07:05:46;;;;;;;84.17;76.10;;;;;;;5.57;100.00;102572.50;1910916;74;86402;-71
2022/01/16 07:11:30;;;;;;;84.87;76.43;;;;;;;5.59;100.00;102589.70;1870451;75;86685;-70
2022/01/16 07:17:14;;;;;;;90.97;82.13;;;;;;;5.62;100.00;102599.77;1911700;74;86204;-71
2022/01/16 07:23:04;;;;;;;88.70;79.63;;;;;;;5.68;100.00;102608.59;1982951;71;39626;-72
2022/01/16 07:28:51;;;;;;;93.20;84.00;;;;;;;5.87;100.00;102609.69;1926238;71;39586;-74
2022/01/16 07:34:36;;;;;;;95.17;85.40;;;;;;;5.94;100.00;102618.83;1884215;75;85772;-72
2022/01/16 07:40:21;;;;;;;91.30;81.50;;;;;;;6.04;100.00;102622.52;1908842;74;85848;-72
2022/01/16 07:46:05;;;;;;;82.50;73.50;;;;;;;6.13;100.00;102621.25;1912392;74;86377;-70
2022/01/16 07:51:52;;;;;;;79.53;70.90;;;;;;;6.31;100.00;102626.45;1894186;74;85673;-72
2022/01/16 07:57:36;;;;;;;77.90;69.70;;;;;;;6.60;100.00;102614.61;1877400;74;85473;-72
2022/01/16 08:03:22;;;;;;;71.87;64.37;;;;;;;6.79;100.00;102620.63;1881014;74;86385;-71
2022/01/16 08:09:05;;;;;;;69.80;61.43;;;;;;;6.92;100.00;102628.02;1918061;74;86130;-72
2022/01/16 08:14:49;;;;;;;72.20;63.50;;;;;;;7.00;100.00;102619.50;1803678;78;86405;-71
2022/01/16 08:20:33;;;;;;;78.03;63.37;;;;;;;7.09;100.00;102623.19;1808582;78;86531;-72
2022/01/16 08:26:18;;;;;;;80.20;66.93;;;;;;;7.09;100.00;102637.53;1911679;74;86073;-71
2022/01/16 08:32:02;;;;;;;72.27;64.43;;;;;;;6.77;100.00;102644.84;1939494;71;39702;-72
2022/01/16 08:37:46;;;;;;;74.03;65.47;;;;;;;6.75;100.00;102659.42;1839525;76;85485;-72
2022/01/16 08:43:30;;;;;;;93.17;64.00;;;;;;;6.71;100.00;102654.02;1887770;73;86404;-71
2022/01/16 08:49:16;;;;;;;76.10;59.93;;;;;;;7.01;100.00;102670.93;1915400;74;86219;-71
2022/01/16 08:55:01;;;;;;;88.70;63.27;;;;;;;7.10;100.00;102689.80;1983044;71;39598;-74
2022/01/16 09:00:47;;;;;;;85.23;62.97;;;;;;;7.11;100.00;102685.97;1815902;76;86494;-69
2022/01/16 09:06:31;;;;;;;95.07;62.87;;;;;;;6.95;100.00;102688.36;1884802;73;86233;-70
2022/01/16 09:12:15;;;;;;;91.07;64.13;;;;;;;6.95;100.00;102693.36;1909610;73;86534;-71
2022/01/16 09:17:59;;;;;;;102.70;63.83;;;;;;;6.99;100.00;102701.53;1973766;71;39715;-72
2022/01/16 09:23:45;;;;;;;82.27;59.93;;;;;;;7.15;100.00;102714.02;1837064;76;85469;-79
2022/01/16 09:29:29;;;;;;;75.67;63.67;;;;;;;7.33;100.00;102734.91;1891568;73;86381;-77
2022/01/16 09:35:15;;;;;;;88.63;70.23;;;;;;;7.39;100.00;102763.08;1908394;74;86946;-74
2022/01/16 09:41:01;;;;;;;75.03;63.10;;;;;;;7.37;100.00;102763.81;1984664;71;40208;-72
2022/01/16 09:46:46;;;;;;;69.00;61.73;;;;;;;7.33;100.00;102774.47;1845458;76;85590;-74
2022/01/16 09:52:30;;;;;;;71.47;64.57;;;;;;;7.33;100.00;102773.61;1879740;73;85567;-72
2022/01/16 09:58:15;;;;;;;69.73;63.07;;;;;;;7.41;100.00;102776.14;1904829;74;85292;-80
2022/01/16 10:04:00;;;;;;;68.47;61.50;;;;;;;7.41;100.00;102792.73;1965592;71;40565;-76
2022/01/16 10:09:45;;;;;;;69.23;62.77;;;;;;;7.41;100.00;102805.17;1827942;75;86525;-72
2022/01/16 10:15:31;;;;;;;72.77;66.23;;;;;;;7.35;100.00;102809.34;1882347;73;86278;-73
2022/01/16 10:21:32;;;;;;;69.07;62.67;;;;;;;7.41;100.00;102831.44;1911857;72;86387;-76
2022/01/16 10:27:38;;;;;;;63.77;57.47;;;;;;;7.36;100.00;102837.31;1893639;74;86252;-76
2022/01/16 10:33:28;;;;;;;67.70;61.50;;;;;;;7.43;100.00;102850.59;1877911;75;85310;-75
2022/01/16 10:39:14;;;;;;;70.37;64.07;;;;;;;7.48;100.00;102852.17;1925272;73;86339;-78
2022/01/16 10:45:01;;;;;;;70.07;63.87;;;;;;;7.51;100.00;102863.66;1978612;71;39534;-73
2022/01/16 10:50:49;;;;;;;73.00;66.57;;;;;;;7.54;100.00;102869.27;1853151;75;86497;-73
2022/01/16 10:56:35;;;;;;;66.53;60.43;;;;;;;7.68;100.00;102863.50;1801991;78;86839;-77
2022/01/16 11:02:36;;;;;;;69.87;63.60;;;;;;;7.49;100.00;102863.53;1894887;74;86252;-71
2022/01/16 11:08:22;;;;;;;72.87;66.43;;;;;;;7.65;100.00;102856.18;1905937;72;86330;-76
2022/01/16 11:14:07;;;;;;;80.17;73.80;;;;;;;7.87;100.00;102847.06;1922956;73;86452;-78
2022/01/16 11:19:52;;;;;;;73.80;67.90;;;;;;;8.11;100.00;102844.93;1975279;71;40394;-70
2022/01/16 11:25:39;;;;;;;71.73;65.83;;;;;;;8.34;100.00;102852.20;1884270;75;86311;-76
2022/01/16 11:31:26;;;;;;;71.83;65.83;;;;;;;8.40;100.00;102849.05;1842468;76;86678;-77
2022/01/16 11:37:10;;;;;;;71.47;65.47;;;;;;;8.58;100.00;102861.63;1927158;73;86183;-77
2022/01/16 11:46:39;;;;;;;65.00;59.57;;;;;;;8.65;100.00;102856.87;1882442;74;86193;-71
2022/01/16 11:52:24;;;;;;;66.93;61.27;;;;;;;8.74;100.00;102858.31;1878951;74;85857;-77
2022/01/16 11:58:10;;;;;;;70.33;64.53;;;;;;;8.89;100.00;102867.17;1924933;73;86257;-74
2022/01/16 12:03:59;;;;;;;67.97;62.37;;;;;;;8.95;100.00;102872.33;1980059;71;39744;-76
2022/01/16 12:09:58;;;;;;;64.50;59.20;;;;;;;8.98;100.00;102878.30;1891217;74;85614;-76
2022/01/16 12:15:51;;;;;;;64.10;58.73;;;;;;;8.96;100.00;102887.36;1986837;71;39700;-70
2022/01/16 12:21:55;;;;;;;69.13;63.40;;;;;;;8.93;100.00;102886.97;1957516;72;86795;-73
2022/01/16 12:28:01;;;;;;;70.40;64.60;;;;;;;8.90;100.00;102879.94;1985410;71;39663;-77
2022/01/16 12:33:56;;;;;;;66.43;60.87;;;;;;;8.86;100.00;102880.07;1933215;71;39488;-76
2022/01/16 12:39:47;;;;;;;66.60;61.23;;;;;;;8.78;100.00;102877.58;1831230;75;86414;-76
2022/01/16 12:45:39;;;;;;;71.17;65.47;;;;;;;8.68;100.00;102884.16;1809404;78;85513;-76
2022/01/16 12:51:26;;;;;;;70.77;64.97;;;;;;;8.68;100.00;102875.29;1883697;75;86367;-74
2022/01/16 12:57:12;;;;;;;68.20;62.63;;;;;;;8.72;100.00;102872.95;1908032;73;86791;-71
2022/01/16 13:02:57;;;;;;;70.20;64.20;;;;;;;8.84;100.00;102872.53;1950103;71;39594;-75
2022/01/16 13:08:54;;;;;;;69.73;63.83;;;;;;;8.87;100.00;102867.92;1828939;76;86698;-72
2022/01/16 13:14:41;;;;;;;69.63;63.67;;;;;;;8.93;100.00;102873.11;1832132;76;86044;-75
2022/01/16 13:20:27;;;;;;;71.77;65.87;;;;;;;9.00;100.00;102863.66;1866878;75;86837;-75
2022/01/16 13:26:26;;;;;;;70.67;64.97;;;;;;;8.98;100.00;102886.62;1913602;74;86210;-71
2022/01/16 13:32:18;;;;;;;66.80;61.57;;;;;;;9.03;100.00;102892.84;1918216;74;86645;-71
2022/01/16 13:38:07;;;;;;;68.30;62.67;;;;;;;9.05;100.00;102899.02;1981599;71;39477;-75
2022/01/16 13:43:51;;;;;;;71.00;65.20;;;;;;;9.14;100.00;102897.67;1911061;73;86232;-75
2022/01/16 13:49:37;;;;;;;67.97;62.47;;;;;;;9.17;100.00;102906.06;1810480;78;86673;-72
2022/01/16 13:55:23;;;;;;;67.90;62.47;;;;;;;9.16;100.00;102900.23;1835178;77;86473;-75
2022/01/16 14:01:16;;;;;;;74.87;69.17;;;;;;;9.15;100.00;102906.31;1917815;73;86362;-69
2022/01/16 14:07:03;;;;;;;74.90;69.30;;;;;;;9.25;100.00;102912.71;1978188;71;39517;-70
2022/01/16 14:13:02;;;;;;;78.90;73.17;;;;;;;9.40;100.00;102920.17;1987093;71;39585;-70
2022/01/16 14:19:08;;;;;;;75.03;69.53;;;;;;;9.47;100.00;102925.11;1822675;76;86590;-71
2022/01/16 14:25:03;;;;;;;66.27;60.77;;;;;;;9.48;100.00;102933.75;1979787;71;40115;-71
2022/01/16 14:30:51;;;;;;;68.70;63.47;;;;;;;9.48;100.00;102932.36;1848471;76;86288;-72
2022/01/16 14:36:35;;;;;;;73.13;67.73;;;;;;;9.51;100.00;102933.28;1809109;78;86520;-74
2022/01/16 14:42:24;;;;;;;72.53;67.13;;;;;;;9.42;100.00;102950.76;1909527;74;85301;-70
2022/01/16 14:48:07;;;;;;;74.63;69.27;;;;;;;9.14;100.00;102960.91;1937631;71;86204;-73
2022/01/16 14:53:52;;;;;;;77.23;71.53;;;;;;;8.88;100.00;102956.08;1945035;71;39545;-72
2022/01/16 14:59:36;;;;;;;74.60;69.13;;;;;;;8.81;100.00;102969.13;1888524;74;86517;-71
2022/01/16 15:05:21;;;;;;;74.50;69.03;;;;;;;8.98;100.00;102976.70;1879573;74;86368;-71
2022/01/16 15:11:05;;;;;;;71.10;65.93;;;;;;;8.86;100.00;102972.91;1923856;73;86262;-73
2022/01/16 15:16:49;;;;;;;69.77;64.43;;;;;;;8.69;100.00;102978.66;1846505;76;85455;-70
2022/01/16 15:22:34;;;;;;;92.67;75.33;;;;;;;8.52;100.00;102982.47;1810091;78;85631;-71
2022/01/16 15:28:19;;;;;;;243.17;117.70;;;;;;;8.42;100.00;102971.03;1908865;74;86142;-68
2022/01/16 15:34:03;;;;;;;93.73;83.43;;;;;;;8.39;100.00;102984.44;1976964;71;39563;-70
2022/01/16 15:39:48;;;;;;;107.37;83.23;;;;;;;8.41;100.00;102987.85;1829954;76;86575;-70
2022/01/16 15:45:35;;;;;;;71.37;65.23;;;;;;;8.42;100.00;102997.34;1831452;76;86725;-70
2022/01/16 15:51:20;;;;;;;76.13;70.43;;;;;;;8.08;100.00;103006.78;1909675;74;85734;-69
2022/01/16 15:57:03;;;;;;;79.73;73.60;;;;;;;8.11;100.00;103014.64;1974979;71;39657;-71
2022/01/16 16:06:05;;;;;;;77.27;71.47;;;;;;;8.10;100.00;103036.46;1814934;78;86415;-71
2022/01/16 16:11:50;;;;;;;74.77;68.90;;;;;;;7.94;100.00;103062.35;1809940;78;86536;-71
2022/01/16 16:17:34;;;;;;;77.73;71.93;;;;;;;7.88;100.00;103068.20;1809271;78;86157;-71
2022/01/16 16:23:22;;;;;;;76.77;70.97;;;;;;;7.76;100.00;103084.59;1884083;75;86708;-71
2022/01/16 16:29:09;;;;;;;71.77;66.20;;;;;;;7.58;100.00;103094.56;1914003;74;85615;-73
2022/01/16 16:34:54;;;;;;;76.60;70.87;;;;;;;7.69;100.00;103111.41;1945022;71;39626;-72
2022/01/16 16:40:38;;;;;;;76.23;70.27;;;;;;;7.98;100.00;103133.67;1851413;76;85596;-69
2022/01/16 16:46:23;;;;;;;72.90;66.87;;;;;;;7.98;100.00;103129.52;1886444;74;86428;-70
2022/01/16 16:52:09;;;;;;;73.33;67.40;;;;;;;8.02;100.00;103128.56;1914315;74;85789;-70
2022/01/16 16:57:52;;;;;;;71.07;64.87;;;;;;;7.67;100.00;103133.41;2013691;71;32839;-78
2022/01/16 17:03:37;;;;;;;70.27;64.17;;;;;;;7.77;100.00;103151.33;2009115;71;32913;-73
2022/01/16 17:09:22;;;;;;;64.33;58.33;;;;;;;8.03;100.00;103175.41;1998420;71;32831;-72
2022/01/16 17:15:09;;;;;;;67.87;61.70;;;;;;;8.12;100.00;103182.98;2006215;71;33313;-70
2022/01/16 17:20:54;;;;;;;68.80;63.00;;;;;;;8.00;100.00;103190.20;2003916;71;33409;-70
2022/01/16 17:26:38;;;;;;;67.10;61.27;;;;;;;7.83;100.00;103192.49;2002216;71;32824;-70
2022/01/16 17:32:23;;;;;;;68.43;62.43;;;;;;;7.99;100.00;103207.34;2013462;71;32755;-70
2022/01/16 17:38:07;;;;;;;66.90;61.37;;;;;;;8.28;100.00;103215.77;2016634;71;32895;-67
2022/01/16 17:43:52;;;;;;;65.07;59.43;;;;;;;8.29;100.00;103211.09;2016472;71;32812;-67
2022/01/16 17:49:37;;;;;;;66.40;60.80;;;;;;;8.28;100.00;103209.38;2014690;71;32808;-69
2022/01/16 17:55:25;;;;;;;64.90;59.30;;;;;;;8.27;100.00;103220.98;2012921;71;32884;-74
2022/01/16 18:01:09;;;;;;;65.03;59.70;;;;;;;8.52;100.00;103248.40;2003761;71;32895;-72
2022/01/16 18:06:55;;;;;;;62.33;57.33;;;;;;;8.49;100.00;103250.75;1999860;71;32978;-72
2022/01/16 18:12:40;;;;;;;63.53;58.50;;;;;;;8.44;100.00;103255.54;2016414;71;32930;-71
2022/01/16 18:18:30;;;;;;;61.20;56.30;;;;;;;8.50;100.00;103271.85;2012855;71;32852;-71
2022/01/16 18:24:13;;;;;;;62.87;57.90;;;;;;;8.61;100.00;103283.67;2007757;71;33351;-71
2022/01/16 18:29:57;;;;;;;64.83;59.60;;;;;;;8.60;100.00;103300.00;2002516;71;32815;-71
2022/01/16 18:35:41;;;;;;;62.40;57.70;;;;;;;8.61;100.00;103298.38;1996988;71;33206;-75
2022/01/16 18:41:26;;;;;;;64.33;59.40;;;;;;;8.58;100.00;103302.97;2000486;71;32930;-73
2022/01/16 18:47:10;;;;;;;65.47;60.33;;;;;;;8.62;100.00;103323.64;2016416;71;32882;-73
2022/01/16 18:52:55;;;;;;;66.10;60.80;;;;;;;8.70;100.00;103332.27;2009476;71;33436;-74
2022/01/16 18:58:39;;;;;;;66.43;61.30;;;;;;;8.65;100.00;103341.75;1998622;71;33347;-70
2022/01/16 19:04:23;;;;;;;65.50;60.40;;;;;;;8.66;100.00;103347.09;1989805;71;33319;-71
2022/01/16 19:10:10;;;;;;;67.00;61.77;;;;;;;8.71;100.00;103357.55;2016327;71;32886;-76
2022/01/16 19:15:54;;;;;;;67.07;61.87;;;;;;;8.61;100.00;103370.95;2016630;71;32907;-75
2022/01/16 19:21:39;;;;;;;67.80;62.60;;;;;;;8.64;100.00;103372.76;2003850;71;32914;-71
2022/01/16 19:27:23;;;;;;;62.37;57.43;;;;;;;8.58;100.00;103376.39;2012784;71;33339;-68
2022/01/16 19:33:09;;;;;;;62.80;57.80;;;;;;;8.78;100.00;103381.95;2016619;71;32810;-68
2022/01/16 19:38:54;;;;;;;65.30;60.00;;;;;;;8.54;100.00;103378.41;2005693;71;32931;-73
2022/01/16 19:44:39;;;;;;;63.50;58.37;;;;;;;8.64;100.00;103389.38;2005952;71;33236;-74
2022/01/16 19:50:24;;;;;;;64.63;59.03;;;;;;;8.61;100.00;103389.81;2016399;71;32811;-68
2022/01/16 19:56:08;;;;;;;65.17;59.57;;;;;;;8.61;100.00;103408.35;2005893;71;32849;-74
2022/01/16 20:01:54;;;;;;;67.97;61.77;;;;;;;8.64;100.00;103408.78;2006023;71;32815;-67
2022/01/16 20:07:40;;;;;;;65.63;60.27;;;;;;;8.54;100.00;103415.28;2009419;71;32875;-72
2022/01/16 20:13:27;;;;;;;66.83;60.70;;;;;;;8.59;100.00;103425.20;1991093;71;32827;-73
2022/01/16 20:19:11;;;;;;;63.10;57.77;;;;;;;8.61;100.00;103429.13;2016417;71;32797;-69
2022/01/16 20:24:55;;;;;;;64.17;58.73;;;;;;;8.51;100.00;103433.71;1996886;71;32728;-72
2022/01/16 20:30:40;;;;;;;63.70;58.40;;;;;;;8.63;100.00;103445.03;2003681;71;33525;-74
2022/01/16 20:36:24;;;;;;;66.37;60.67;;;;;;;8.55;100.00;103436.91;2014871;71;33426;-73
2022/01/16 20:42:09;;;;;;;65.57;60.13;;;;;;;8.62;100.00;103444.17;2012927;71;32826;-67
2022/01/16 20:47:53;;;;;;;66.23;60.77;;;;;;;8.28;100.00;103446.14;2011622;71;33349;-76
2022/01/16 20:53:37;;;;;;;67.97;62.67;;;;;;;8.07;100.00;103448.50;2002562;71;33302;-72
2022/01/16 20:59:23;;;;;;;66.67;61.03;;;;;;;8.11;100.00;103465.03;1996737;71;32752;-71
2022/01/16 21:05:09;;;;;;;62.33;57.43;;;;;;;8.14;100.00;103471.53;1962260;71;33505;-69
2022/01/16 21:10:56;;;;;;;68.50;63.27;;;;;;;7.99;100.00;103479.12;2000486;71;32814;-72
2022/01/16 21:16:42;;;;;;;62.93;57.90;;;;;;;7.82;100.00;103477.22;2003607;71;33296;-67
2022/01/16 21:22:27;;;;;;;61.87;56.87;;;;;;;7.92;100.00;103480.98;2009398;71;33324;-67
2022/01/16 21:28:13;;;;;;;59.13;54.67;;;;;;;7.90;100.00;103490.89;2003817;71;33450;-69
2022/01/16 21:34:00;;;;;;;62.43;57.77;;;;;;;7.89;100.00;103502.16;2002418;71;33225;-69
2022/01/16 21:39:47;;;;;;;80.03;74.10;;;;;;;7.72;100.00;103498.84;2011567;71;33290;-66
2022/01/16 21:45:33;;;;;;;66.80;61.77;;;;;;;7.53;100.00;103498.18;2014730;71;32930;-68
2022/01/16 21:51:17;;;;;;;67.57;62.23;;;;;;;7.44;100.00;103504.39;2003515;71;32873;-68
2022/01/16 21:57:01;;;;;;;63.50;58.67;;;;;;;7.30;100.00;103502.02;2014922;71;34182;-71
2022/01/16 22:02:46;;;;;;;64.67;59.53;;;;;;;7.16;100.00;103513.14;2007868;71;33210;-69
2022/01/16 22:08:31;;;;;;;61.63;57.23;;;;;;;6.94;100.00;103517.80;2000449;71;33348;-74
2022/01/16 22:14:16;;;;;;;65.43;60.07;;;;;;;6.75;100.00;103517.07;2016407;71;32911;-74
2022/01/16 22:20:00;;;;;;;61.10;56.27;;;;;;;6.71;100.00;103528.19;1998355;71;32798;-70
2022/01/16 22:25:45;;;;;;;59.43;54.40;;;;;;;6.57;100.00;103537.34;2009713;71;33247;-71
2022/01/16 22:31:29;;;;;;;61.00;55.90;;;;;;;6.46;100.00;103535.09;2002123;71;32791;-75
2022/01/16 22:37:14;;;;;;;60.73;55.93;;;;;;;6.48;100.00;103537.97;1998199;71;32962;-70
2022/01/16 22:42:58;;;;;;;58.40;53.77;;;;;;;6.44;100.00;103553.73;2012981;71;32799;-74
2022/01/16 22:48:44;;;;;;;59.17;54.17;;;;;;;6.40;100.00;103557.41;2009585;70;32967;-74
2022/01/16 22:54:30;;;;;;;61.07;56.73;;;;;;;6.36;100.00;103566.61;2002275;71;32739;-70
2022/01/16 23:00:19;;;;;;;60.30;55.37;;;;;;;6.24;100.00;103579.70;1994852;71;32739;-72
2022/01/16 23:06:04;;;;;;;59.47;54.83;;;;;;;6.18;100.00;103576.30;1998380;71;33265;-73
2022/01/16 23:11:50;;;;;;;58.80;53.50;;;;;;;5.90;100.00;103578.86;2008051;70;33177;-73
2022/01/16 23:17:35;;;;;;;57.43;52.80;;;;;;;5.97;100.00;103583.95;2000192;71;33395;-73
2022/01/16 23:23:21;;;;;;;58.63;54.37;;;;;;;5.98;100.00;103585.67;1999995;71;32808;-70
2022/01/16 23:29:06;;;;;;;58.50;53.97;;;;;;;5.98;100.00;103593.95;2005934;71;32895;-69
2022/01/16 23:34:50;;;;;;;57.50;53.20;;;;;;;5.82;100.00;103596.80;1996985;71;32741;-70
2022/01/16 23:40:35;;;;;;;57.50;53.00;;;;;;;5.68;100.00;103590.75;2014569;71;32894;-74
2022/01/16 23:46:23;;;;;;;63.60;58.40;;;;;;;5.53;100.00;103591.20;2012947;71;32903;-74
2022/01/16 23:52:07;;;;;;;58.93;54.60;;;;;;;5.43;100.00;103604.72;2014759;71;33371;-74
2022/01/16 23:57:51;;;;;;;58.07;53.77;;;;;;;5.31;100.00;103603.44;2013483;71;33258;-72
